Mont-Louis, Canada
Current Conditions -  °F | °C
As of 8:00 PM on Monday 20 Oct 2014 (Local Time) from CYGP Reporting Station
Few Clouds Few Clouds  
Wind Chill: 32°   Ceiling: Unl
Heat Index: 39°   Visibility: 15mi
Dew Point: 28°   Wind: 12mph
Humidity: 65%   Direction: 270°W
Pressure: 29.67"   Gusts: 20mph
Location:  49.22°N, 65.75°W
Report Text: CYGP 210000Z 27010G17KT 15SM FEW030 04/M02 A2967 RMK SC2 SLP050
Loading
Personal Weather Stations






























Interactive Weather Map
Tropical Storm Tracking
New forecast layout! Learn more

10-Day Weather Forecast

Advertisements
Track Severe Weather on mobile